Time;durP1;ratioP1;P1;durP2;ratioP2;P2;SDS_P1;SDS_P2;PMS_P1;PMS_P2;Temp;Humidity;BMP_temperature;BMP_pressure;BME280_temperature;BME280_humidity;BME280_pressure;Samples;Min_cycle;Max_cycle;Signal;HPM_P1;HPM_P2
2021/09/01 00:01:14;;;;;;;3.45;2.22;;;;;;;13.96;100.00;102356.00;6222068;28;20422;-80
2021/09/01 00:04:15;;;;;;;6.07;2.50;;;;;;;13.93;100.00;102349.97;6218810;28;20410;-80
2021/09/01 00:07:16;;;;;;;3.72;2.17;;;;;;;13.84;100.00;102360.94;6218446;28;20057;-79
2021/09/01 00:10:18;;;;;;;4.80;2.05;;;;;;;13.84;100.00;102358.28;6218631;28;20053;-79
2021/09/01 00:13:19;;;;;;;5.90;2.90;;;;;;;13.84;100.00;102361.78;6218467;28;20107;-79
2021/09/01 00:16:30;;;;;;;3.65;2.10;;;;;;;13.86;100.00;102359.97;6218226;28;21772;-79
2021/09/01 00:19:31;;;;;;;5.95;2.17;;;;;;;13.85;100.00;102365.28;6219425;28;20754;-80
2021/09/01 00:22:32;;;;;;;10.02;2.45;;;;;;;13.89;100.00;102367.75;6231696;28;20038;-80
2021/09/01 00:25:34;;;;;;;8.20;3.15;;;;;;;13.90;100.00;102369.50;6222780;28;20409;-79
2021/09/01 00:28:35;;;;;;;3.47;2.08;;;;;;;13.94;100.00;102367.56;6221312;28;20042;-79
2021/09/01 00:31:38;;;;;;;5.13;2.05;;;;;;;13.98;100.00;102369.16;6233826;28;20658;-79
2021/09/01 00:34:39;;;;;;;6.47;2.55;;;;;;;13.94;100.00;102368.44;6234301;28;20052;-79
2021/09/01 00:37:41;;;;;;;6.10;2.63;;;;;;;13.88;100.00;102370.47;6237083;28;20042;-79
2021/09/01 00:40:42;;;;;;;2.67;1.40;;;;;;;13.88;100.00;102363.38;6238472;28;20045;-80
2021/09/01 00:43:45;;;;;;;4.63;2.22;;;;;;;13.91;100.00;102365.91;6240365;28;20517;-80
2021/09/01 00:46:48;;;;;;;4.38;1.90;;;;;;;13.89;100.00;102365.09;6246293;28;20057;-80
2021/09/01 00:49:50;;;;;;;5.93;1.88;;;;;;;13.87;100.00;102361.69;6241142;28;20041;-79
2021/09/01 00:52:52;;;;;;;4.93;2.22;;;;;;;13.77;100.00;102365.63;6250942;28;20045;-80
2021/09/01 00:55:56;;;;;;;2.08;1.40;;;;;;;13.76;100.00;102363.88;6250210;28;20065;-79
2021/09/01 00:58:58;;;;;;;3.75;1.98;;;;;;;13.76;100.00;102371.81;6250827;28;20065;-80
2021/09/01 01:02:02;;;;;;;3.35;1.85;;;;;;;13.76;100.00;102368.31;6248158;28;20050;-79
2021/09/01 01:05:04;;;;;;;3.28;1.92;;;;;;;13.75;100.00;102366.59;6233699;28;20521;-79
2021/09/01 01:08:06;;;;;;;5.72;1.95;;;;;;;13.73;100.00;102371.09;6225687;28;20057;-80
2021/09/01 01:11:12;;;;;;;3.08;1.70;;;;;;;13.71;100.00;102361.44;6225832;28;20138;-80
2021/09/01 01:14:13;;;;;;;4.00;2.33;;;;;;;13.74;100.00;102372.81;6225271;28;20188;-79
2021/09/01 01:17:18;;;;;;;4.30;2.10;;;;;;;13.73;100.00;102369.31;6225566;28;20528;-79
2021/09/01 01:20:19;;;;;;;3.38;1.85;;;;;;;13.68;100.00;102366.00;6230676;28;20045;-79
2021/09/01 01:23:23;;;;;;;3.70;1.85;;;;;;;13.70;100.00;102372.06;6237975;28;20129;-80
2021/09/01 01:26:28;;;;;;;4.88;2.53;;;;;;;13.70;100.00;102370.28;6236702;28;20037;-79
2021/09/01 01:29:29;;;;;;;4.03;2.28;;;;;;;13.69;100.00;102373.84;6249778;28;20072;-79
2021/09/01 01:32:30;;;;;;;5.18;1.80;;;;;;;13.63;100.00;102373.25;6223273;28;20045;-79
2021/09/01 01:35:34;;;;;;;5.72;2.10;;;;;;;13.38;100.00;102362.78;6235354;28;20068;-80
2021/09/01 01:38:35;;;;;;;5.05;1.75;;;;;;;13.27;100.00;102371.13;6235799;28;20049;-79
2021/09/01 01:41:38;;;;;;;6.15;2.08;;;;;;;13.26;100.00;102366.75;6224212;28;20057;-80
2021/09/01 01:44:39;;;;;;;5.50;2.63;;;;;;;13.28;100.00;102370.22;6229679;28;20042;-80
2021/09/01 01:47:41;;;;;;;2.33;1.52;;;;;;;13.33;100.00;102370.88;6240503;28;20050;-80
2021/09/01 01:50:43;;;;;;;4.25;2.05;;;;;;;13.36;100.00;102367.28;6248703;28;20053;-80
2021/09/01 01:53:45;;;;;;;3.88;1.90;;;;;;;13.32;100.00;102369.19;6232414;28;20052;-80
2021/09/01 01:56:47;;;;;;;3.53;1.83;;;;;;;13.33;100.00;102376.16;6238444;28;20050;-79
2021/09/01 01:59:49;;;;;;;2.25;1.40;;;;;;;13.37;100.00;102379.56;6238941;28;20052;-79
2021/09/01 02:02:50;;;;;;;5.82;2.28;;;;;;;13.24;100.00;102383.59;6231848;28;20477;-79
2021/09/01 02:05:51;;;;;;;4.88;2.15;;;;;;;13.15;100.00;102379.47;6231013;28;20037;-79
2021/09/01 02:08:53;;;;;;;3.33;2.25;;;;;;;13.01;100.00;102385.28;6239660;28;20095;-79
2021/09/01 02:11:56;;;;;;;4.72;2.35;;;;;;;13.06;100.00;102391.25;6243316;28;20056;-79
2021/09/01 02:14:57;;;;;;;3.22;2.33;;;;;;;12.98;100.00;102393.31;6239013;28;20056;-80
2021/09/01 02:17:58;;;;;;;6.60;1.90;;;;;;;12.95;100.00;102390.78;6248237;28;20049;-79
2021/09/01 02:21:00;;;;;;;6.45;1.80;;;;;;;13.03;100.00;102383.44;6247925;28;20053;-79
2021/09/01 02:24:01;;;;;;;3.75;1.63;;;;;;;13.10;100.00;102381.44;6239688;28;20042;-80
2021/09/01 02:27:04;;;;;;;3.92;2.35;;;;;;;13.10;100.00;102387.56;6239675;28;20061;-79
2021/09/01 02:30:07;;;;;;;3.58;1.83;;;;;;;13.20;100.00;102388.94;6247667;28;20060;-79
2021/09/01 02:33:08;;;;;;;4.15;2.15;;;;;;;13.21;100.00;102380.09;6247839;28;20052;-79
2021/09/01 02:36:10;;;;;;;5.47;2.63;;;;;;;13.32;100.00;102379.75;6247584;28;20050;-79
2021/09/01 02:39:11;;;;;;;5.03;1.90;;;;;;;13.40;100.00;102376.81;6247521;28;20049;-80
2021/09/01 02:42:14;;;;;;;6.25;2.15;;;;;;;13.39;100.00;102375.91;6247112;28;20049;-80
2021/09/01 02:45:17;;;;;;;4.15;2.00;;;;;;;13.39;100.00;102380.34;6246376;28;20492;-80
2021/09/01 02:48:18;;;;;;;6.90;1.92;;;;;;;13.41;100.00;102384.66;6246227;28;20045;-79
2021/09/01 02:51:19;;;;;;;8.30;2.42;;;;;;;13.42;100.00;102383.72;6235126;28;20520;-79
2021/09/01 02:54:21;;;;;;;4.10;1.80;;;;;;;13.50;100.00;102385.22;6224391;28;20046;-79
2021/09/01 02:57:23;;;;;;;11.60;2.25;;;;;;;13.56;100.00;102396.41;6238530;28;20049;-79
2021/09/01 03:00:25;;;;;;;2.88;2.13;;;;;;;13.57;100.00;102386.69;6223794;28;20057;-79
2021/09/01 03:03:26;;;;;;;4.38;2.20;;;;;;;13.56;100.00;102380.53;6213672;28;20509;-79
2021/09/01 03:06:27;;;;;;;4.78;2.25;;;;;;;13.59;100.00;102383.06;6226200;28;20049;-79
2021/09/01 03:09:29;;;;;;;3.60;1.77;;;;;;;13.63;100.00;102384.69;6230029;28;20045;-79
2021/09/01 03:12:31;;;;;;;6.47;2.30;;;;;;;13.61;100.00;102380.38;6234970;28;20501;-79
2021/09/01 03:15:33;;;;;;;5.45;2.35;;;;;;;13.59;100.00;102377.78;6234456;28;20079;-79
2021/09/01 03:18:35;;;;;;;4.65;2.13;;;;;;;13.62;100.00;102376.78;6246463;28;20436;-79
2021/09/01 03:21:36;;;;;;;3.75;2.53;;;;;;;13.63;100.00;102375.91;6235269;28;20046;-79
2021/09/01 03:24:37;;;;;;;4.70;2.50;;;;;;;13.59;100.00;102374.28;6232896;28;20045;-79
2021/09/01 03:27:41;;;;;;;6.15;2.33;;;;;;;13.53;100.00;102371.88;6222108;28;20050;-79
2021/09/01 03:30:42;;;;;;;6.00;2.33;;;;;;;13.50;100.00;102364.94;6222631;28;20053;-79
2021/09/01 03:33:43;;;;;;;5.15;1.52;;;;;;;13.55;100.00;102355.06;6230584;28;20041;-79
2021/09/01 03:36:45;;;;;;;4.15;2.00;;;;;;;13.42;100.00;102367.88;6222402;28;20058;-79
2021/09/01 03:39:46;;;;;;;7.43;2.53;;;;;;;13.23;100.00;102361.59;6222661;28;20050;-79
2021/09/01 03:42:49;;;;;;;4.20;2.42;;;;;;;13.21;100.00;102369.53;6222320;28;20050;-80
2021/09/01 03:45:54;;;;;;;8.00;2.50;;;;;;;13.09;100.00;102371.81;6230169;28;20050;-80
2021/09/01 03:48:55;;;;;;;7.05;2.33;;;;;;;13.07;100.00;102384.19;6237674;28;20046;-79
2021/09/01 03:51:57;;;;;;;3.53;1.95;;;;;;;13.05;100.00;102389.53;6228708;28;20509;-79
2021/09/01 03:54:58;;;;;;;4.05;2.10;;;;;;;13.02;100.00;102387.00;6230227;28;20053;-79
2021/09/01 03:58:01;;;;;;;7.55;2.78;;;;;;;13.00;100.00;102393.28;6234511;28;20057;-78
2021/09/01 04:01:02;;;;;;;5.20;2.05;;;;;;;13.11;100.00;102394.56;6225732;28;20056;-79
2021/09/01 04:04:04;;;;;;;6.47;2.15;;;;;;;13.16;100.00;102391.75;6225689;28;20053;-78
2021/09/01 04:07:06;;;;;;;6.55;2.53;;;;;;;13.24;100.00;102392.38;6225725;28;20090;-79
2021/09/01 04:10:08;;;;;;;5.05;2.40;;;;;;;13.30;100.00;102396.53;6224892;28;20065;-79
2021/09/01 04:13:11;;;;;;;5.25;2.50;;;;;;;13.33;100.00;102392.00;6225628;28;20057;-79
2021/09/01 04:16:12;;;;;;;5.53;2.50;;;;;;;13.37;100.00;102395.41;6227937;28;20054;-79
2021/09/01 04:19:13;;;;;;;2.33;1.65;;;;;;;13.38;100.00;102399.75;6225722;28;20050;-79
2021/09/01 04:22:15;;;;;;;5.25;2.83;;;;;;;13.38;100.00;102395.34;6225289;28;20053;-79
2021/09/01 04:25:16;;;;;;;6.00;2.30;;;;;;;13.38;100.00;102392.69;6224590;28;20038;-78
2021/09/01 04:28:19;;;;;;;3.83;2.08;;;;;;;13.27;100.00;102401.97;6223859;28;20053;-78
2021/09/01 04:31:20;;;;;;;6.13;3.55;;;;;;;13.18;100.00;102401.34;6224226;28;20425;-79
2021/09/01 04:34:21;;;;;;;5.20;2.50;;;;;;;13.10;100.00;102402.56;6223388;28;20042;-79
2021/09/01 04:37:23;;;;;;;6.18;3.58;;;;;;;13.10;100.00;102410.47;6225114;28;20109;-79
2021/09/01 04:40:24;;;;;;;7.47;2.45;;;;;;;13.12;100.00;102398.91;6224967;28;20418;-79
2021/09/01 04:43:27;;;;;;;6.03;2.38;;;;;;;13.26;100.00;102403.72;6225110;28;20050;-79
2021/09/01 04:46:28;;;;;;;6.45;2.42;;;;;;;13.29;100.00;102408.03;6225325;28;20049;-80
2021/09/01 04:49:30;;;;;;;4.28;2.60;;;;;;;13.31;100.00;102408.84;6223816;28;20045;-78
2021/09/01 04:52:31;;;;;;;10.98;2.85;;;;;;;13.31;100.00;102407.06;6224091;28;20050;-79
2021/09/01 04:55:32;;;;;;;8.48;2.90;;;;;;;13.37;100.00;102404.19;6222762;28;20485;-80
2021/09/01 04:58:35;;;;;;;3.33;2.25;;;;;;;13.38;100.00;102407.69;6224341;28;20049;-79
2021/09/01 05:01:36;;;;;;;8.13;2.33;;;;;;;13.35;100.00;102413.06;6233313;28;20062;-80
2021/09/01 05:04:38;;;;;;;4.68;2.83;;;;;;;13.41;100.00;102412.84;6238017;28;20386;-79
2021/09/01 05:07:39;;;;;;;8.05;2.50;;;;;;;13.48;100.00;102408.19;6236211;28;20049;-79
2021/09/01 05:10:40;;;;;;;3.30;2.25;;;;;;;13.47;100.00;102420.53;6224155;28;20049;-79
2021/09/01 05:13:43;;;;;;;4.75;2.40;;;;;;;13.50;100.00;102417.78;6223959;28;20041;-80
2021/09/01 05:16:44;;;;;;;6.03;2.83;;;;;;;13.57;100.00;102426.31;6223980;28;20053;-79
2021/09/01 05:19:46;;;;;;;6.18;2.33;;;;;;;13.62;100.00;102430.50;6231864;28;20073;-79
2021/09/01 05:22:49;;;;;;;7.38;3.20;;;;;;;13.65;100.00;102432.16;6238290;28;20057;-79
2021/09/01 05:25:55;;;;;;;4.82;2.72;;;;;;;13.71;100.00;102435.41;6219796;28;20516;-79
2021/09/01 05:29:02;;;;;;;10.02;2.53;;;;;;;13.76;100.00;102440.50;6233098;28;20503;-78
2021/09/01 05:32:05;;;;;;;5.60;2.50;;;;;;;13.76;100.00;102440.50;6225970;28;20506;-80
2021/09/01 05:35:08;;;;;;;4.90;2.38;;;;;;;13.76;100.00;102445.78;6221292;28;20054;-79
2021/09/01 05:38:11;;;;;;;6.03;2.65;;;;;;;13.83;100.00;102452.56;6225035;28;20053;-79
2021/09/01 05:41:13;;;;;;;4.05;2.42;;;;;;;13.79;100.00;102450.13;6233702;28;20505;-79
2021/09/01 05:44:15;;;;;;;5.10;2.53;;;;;;;13.81;100.00;102454.44;6226708;28;20046;-80
2021/09/01 05:47:18;;;;;;;4.72;2.42;;;;;;;13.77;100.00;102444.03;6238778;28;20049;-80
2021/09/01 05:50:20;;;;;;;6.32;2.83;;;;;;;13.80;100.00;102452.69;6240394;28;20056;-80
2021/09/01 05:53:22;;;;;;;4.00;2.35;;;;;;;13.76;100.00;102459.00;6231215;28;20049;-80
2021/09/01 05:56:29;;;;;;;2.83;2.00;;;;;;;13.82;100.00;102458.78;6236471;28;20049;-79
2021/09/01 05:59:32;;;;;;;6.70;2.47;;;;;;;13.86;100.00;102456.91;6225699;28;20054;-80
2021/09/01 06:02:39;;;;;;;5.03;2.80;;;;;;;13.90;100.00;102459.34;6235338;28;20049;-80
2021/09/01 06:05:44;;;;;;;3.50;2.42;;;;;;;13.93;100.00;102459.22;6223569;28;20267;-80
2021/09/01 06:08:47;;;;;;;6.55;2.70;;;;;;;13.92;100.00;102464.56;6234460;28;20049;-79
2021/09/01 06:11:53;;;;;;;10.65;2.47;;;;;;;13.96;100.00;102459.09;6231221;28;20048;-79
2021/09/01 06:14:56;;;;;;;6.68;2.45;;;;;;;13.92;100.00;102460.13;6240819;28;20041;-80
2021/09/01 06:17:59;;;;;;;3.00;2.00;;;;;;;14.00;100.00;102461.63;6248138;28;20049;-80
2021/09/01 06:21:00;;;;;;;7.25;2.83;;;;;;;14.06;100.00;102464.88;6233447;28;20061;-80
2021/09/01 06:24:02;;;;;;;6.53;1.77;;;;;;;14.08;100.00;102468.31;6248864;28;20045;-80
2021/09/01 06:27:04;;;;;;;5.13;2.17;;;;;;;14.14;100.00;102464.56;6248299;28;20053;-79
2021/09/01 06:30:08;;;;;;;8.10;3.40;;;;;;;14.20;100.00;102473.09;6247693;28;20440;-80
2021/09/01 06:33:10;;;;;;;5.43;2.88;;;;;;;14.24;100.00;102471.19;6244177;28;20049;-78
2021/09/01 06:36:11;;;;;;;3.35;2.20;;;;;;;14.28;100.00;102475.44;6236094;28;20515;-79
2021/09/01 06:39:12;;;;;;;4.70;2.35;;;;;;;14.27;100.00;102478.16;6233456;28;20054;-80
2021/09/01 06:42:14;;;;;;;8.65;3.40;;;;;;;14.33;100.00;102478.75;6229642;28;20061;-79
2021/09/01 06:45:17;;;;;;;9.32;2.25;;;;;;;14.33;100.00;102478.75;6234575;28;20421;-80
2021/09/01 06:48:20;;;;;;;4.25;2.00;;;;;;;14.37;100.00;102480.34;6232770;28;20057;-79
2021/09/01 06:51:21;;;;;;;5.90;2.35;;;;;;;14.40;100.00;102477.59;6238855;28;20071;-80
2021/09/01 06:54:23;;;;;;;5.97;2.08;;;;;;;14.46;100.00;102484.41;6247107;28;20045;-80
2021/09/01 06:57:24;;;;;;;6.32;2.58;;;;;;;14.49;100.00;102481.66;6246292;28;20053;-79
2021/09/01 07:00:27;;;;;;;4.78;2.60;;;;;;;14.50;100.00;102487.81;6245987;28;20049;-79
2021/09/01 07:03:28;;;;;;;6.57;2.97;;;;;;;14.52;100.00;102485.94;6245964;28;20500;-79
2021/09/01 07:06:30;;;;;;;3.60;2.17;;;;;;;14.57;100.00;102490.13;6229112;28;20046;-79
2021/09/01 07:09:31;;;;;;;4.57;2.13;;;;;;;14.66;100.00;102483.56;6222496;28;20049;-79
2021/09/01 07:12:32;;;;;;;5.97;2.75;;;;;;;14.75;100.00;102487.63;6222611;28;20049;-79
2021/09/01 07:15:35;;;;;;;5.72;2.70;;;;;;;14.72;100.00;102485.97;6222742;28;20046;-79
2021/09/01 07:18:36;;;;;;;5.97;2.22;;;;;;;14.73;100.00;102486.84;6222117;28;20050;-79
2021/09/01 07:21:38;;;;;;;6.03;3.60;;;;;;;14.76;100.00;102492.88;6234278;28;20390;-80
2021/09/01 07:24:39;;;;;;;6.35;2.28;;;;;;;14.86;100.00;102495.97;6223478;28;20049;-80
2021/09/01 07:27:40;;;;;;;12.82;2.83;;;;;;;14.81;100.00;102493.53;6222303;28;20050;-80
2021/09/01 07:30:43;;;;;;;4.53;2.60;;;;;;;14.88;100.00;102504.69;6231711;28;20042;-78
2021/09/01 07:33:44;;;;;;;10.25;3.38;;;;;;;14.93;100.00;102498.25;6231054;28;20052;-78
2021/09/01 07:36:46;;;;;;;5.22;2.70;;;;;;;14.96;100.00;102498.13;6243059;28;20056;-78
2021/09/01 07:39:47;;;;;;;5.72;2.83;;;;;;;15.05;100.00;102501.31;6241594;28;20053;-77
2021/09/01 07:42:49;;;;;;;6.32;2.50;;;;;;;15.08;100.00;102501.16;6238257;28;20046;-78
2021/09/01 07:45:52;;;;;;;5.25;2.83;;;;;;;15.14;98.68;102500.91;6227923;28;20079;-78
2021/09/01 07:48:57;;;;;;;6.80;3.50;;;;;;;15.17;100.00;102503.41;6226814;28;20050;-78
2021/09/01 07:51:59;;;;;;;9.10;3.13;;;;;;;15.20;99.78;102504.13;6241380;28;20045;-79
2021/09/01 07:55:00;;;;;;;4.80;3.03;;;;;;;15.23;99.06;102514.59;6242528;28;20053;-80
2021/09/01 07:58:01;;;;;;;6.80;3.60;;;;;;;15.28;97.85;102514.41;6228261;28;20413;-79
2021/09/01 08:01:04;;;;;;;7.57;3.08;;;;;;;15.38;96.58;102512.19;6227202;28;20180;-80
2021/09/01 08:04:06;;;;;;;5.72;2.60;;;;;;;15.42;97.09;102519.94;6228615;28;20050;-79
2021/09/01 08:07:07;;;;;;;4.20;2.47;;;;;;;15.42;96.44;102525.22;6227025;28;20061;-79
2021/09/01 08:10:09;;;;;;;5.32;2.97;;;;;;;15.53;96.47;102519.44;6226508;28;20567;-79
2021/09/01 08:13:11;;;;;;;6.88;2.97;;;;;;;15.57;97.62;102522.81;6226701;28;20259;-79
2021/09/01 08:16:13;;;;;;;8.32;2.65;;;;;;;15.58;96.31;102519.22;6227169;28;20513;-79
2021/09/01 08:19:15;;;;;;;5.00;2.55;;;;;;;15.58;97.02;102524.50;6237561;28;20060;-82
2021/09/01 08:22:16;;;;;;;3.00;1.75;;;;;;;15.63;98.47;102528.69;6237579;28;20425;-80
2021/09/01 08:25:18;;;;;;;7.72;2.28;;;;;;;15.64;97.24;102525.13;6239201;28;20045;-79
2021/09/01 08:28:19;;;;;;;6.40;2.30;;;;;;;15.70;98.20;102527.50;6240592;28;20053;-80
2021/09/01 08:31:22;;;;;;;3.00;1.73;;;;;;;15.78;95.46;102537.75;6240412;28;20053;-81
2021/09/01 08:34:23;;;;;;;5.03;2.38;;;;;;;15.81;93.64;102544.72;6252252;28;20052;-79
2021/09/01 08:37:25;;;;;;;3.33;1.40;;;;;;;15.96;89.95;102536.88;6247206;28;20046;-79
2021/09/01 08:40:26;;;;;;;6.25;1.20;;;;;;;15.84;90.62;102548.06;6245637;28;20053;-80
2021/09/01 08:43:27;;;;;;;3.53;1.40;;;;;;;15.85;91.04;102547.16;6253349;28;20049;-80
2021/09/01 08:46:32;;;;;;;5.90;1.38;;;;;;;15.78;93.91;102547.50;6250976;28;20509;-81
2021/09/01 08:49:33;;;;;;;1.88;1.58;;;;;;;15.76;91.98;102552.88;6250334;28;20417;-80
2021/09/01 08:52:37;;;;;;;8.15;2.03;;;;;;;15.90;93.33;102546.94;6250626;28;20060;-80
2021/09/01 08:55:38;;;;;;;5.85;2.63;;;;;;;15.90;90.16;102545.16;6249246;28;20049;-82
2021/09/01 08:58:40;;;;;;;5.90;1.40;;;;;;;15.86;92.87;102551.53;6242228;28;20045;-80
2021/09/01 09:01:44;;;;;;;5.80;2.50;;;;;;;15.90;92.18;102549.59;6250218;28;20053;-80
2021/09/01 09:04:46;;;;;;;4.80;2.38;;;;;;;15.91;92.81;102544.22;6250241;28;20501;-83
2021/09/01 09:07:53;;;;;;;2.38;1.40;;;;;;;15.94;92.42;102538.78;6250574;28;20049;-81
2021/09/01 09:10:54;;;;;;;2.85;1.75;;;;;;;16.02;91.77;102537.53;6250780;28;20136;-81
2021/09/01 09:13:56;;;;;;;4.18;1.60;;;;;;;15.95;91.76;102542.28;6249972;28;20489;-80
2021/09/01 09:17:05;;;;;;;2.88;1.20;;;;;;;15.98;94.16;102542.97;6250439;28;20508;-81
2021/09/01 09:20:08;;;;;;;3.92;1.83;;;;;;;16.00;94.05;102545.56;6251965;28;20057;-79
2021/09/01 09:23:10;;;;;;;4.35;1.83;;;;;;;16.04;93.98;102551.59;6251924;28;20398;-80
2021/09/01 09:26:23;;;;;;;4.15;1.98;;;;;;;16.30;92.78;102564.44;6250610;28;20067;-81
2021/09/01 09:29:24;;;;;;;5.03;1.67;;;;;;;16.23;92.25;102557.72;6230852;28;20050;-80
2021/09/01 09:32:27;;;;;;;4.43;2.03;;;;;;;16.20;92.75;102564.03;6226392;28;20046;-79
2021/09/01 09:35:46;;;;;;;3.63;1.92;;;;;;;16.22;91.62;102551.56;6227497;28;20052;-78
2021/09/01 09:38:47;;;;;;;3.38;1.70;;;;;;;16.43;91.77;102549.66;6227845;28;20188;-81
2021/09/01 09:41:52;;;;;;;3.70;1.77;;;;;;;16.45;91.98;102555.75;6225805;28;20060;-79
2021/09/01 09:44:54;;;;;;;4.28;1.92;;;;;;;16.60;89.45;102551.47;6226028;28;20425;-82
2021/09/01 09:47:57;;;;;;;2.35;1.75;;;;;;;16.53;89.17;102550.03;6226210;28;20058;-81
2021/09/01 09:51:01;;;;;;;2.65;1.48;;;;;;;16.67;89.80;102555.56;6224559;28;20049;-81
2021/09/01 09:54:14;;;;;;;6.13;2.05;;;;;;;16.73;87.18;102551.75;6223158;28;20061;-81
2021/09/01 09:57:15;;;;;;;4.30;1.83;;;;;;;16.66;89.45;102563.56;6223892;28;20076;-80
2021/09/01 10:00:17;;;;;;;5.90;1.98;;;;;;;16.65;87.76;102551.25;6223360;28;20053;-80
2021/09/01 10:03:20;;;;;;;4.20;2.00;;;;;;;16.71;87.11;102558.88;6234986;28;20064;-79
2021/09/01 10:06:21;;;;;;;5.22;1.50;;;;;;;16.77;87.70;102549.81;6236628;28;20042;-79
2021/09/01 10:09:24;;;;;;;3.10;1.67;;;;;;;16.80;87.76;102541.66;6224032;28;20050;-79
2021/09/01 10:12:26;;;;;;;7.22;2.65;;;;;;;16.96;87.42;102542.63;6223841;28;20053;-78
2021/09/01 10:15:32;;;;;;;3.15;1.30;;;;;;;16.94;87.48;102540.06;6223633;28;20077;-80
2021/09/01 10:18:38;;;;;;;8.63;1.88;;;;;;;17.04;88.48;102535.13;6224019;28;20050;-80
2021/09/01 10:21:43;;;;;;;3.40;2.10;;;;;;;16.98;88.60;102536.28;6229618;28;20048;-81
2021/09/01 10:24:45;;;;;;;6.40;2.28;;;;;;;17.16;87.15;102537.13;6240757;28;20042;-80
2021/09/01 10:27:46;;;;;;;8.05;2.10;;;;;;;17.05;88.89;102531.50;6241399;28;20046;-79
2021/09/01 10:31:21;;;;;;;6.10;2.00;;;;;;;17.16;86.59;102541.56;6223682;28;20054;-79
2021/09/01 10:34:24;;;;;;;2.95;1.90;;;;;;;17.05;87.20;102536.81;6223461;28;20053;-80
2021/09/01 10:37:38;;;;;;;3.33;1.98;;;;;;;17.12;85.33;102535.59;6223307;28;20061;-79
2021/09/01 10:40:55;;;;;;;5.30;1.85;;;;;;;17.20;85.00;102535.16;6224242;28;20174;-77
2021/09/01 10:43:56;;;;;;;4.43;2.30;;;;;;;17.19;86.62;102534.31;6223208;28;20049;-80
2021/09/01 10:47:02;;;;;;;3.38;1.80;;;;;;;17.41;87.50;102528.72;6223715;28;20049;-80
2021/09/01 10:50:07;;;;;;;5.45;2.22;;;;;;;17.62;86.55;102526.72;6223526;28;20184;-79
2021/09/01 10:53:21;;;;;;;3.65;2.00;;;;;;;17.60;84.40;102525.91;6224045;28;20057;-78
2021/09/01 10:56:22;;;;;;;3.97;2.25;;;;;;;17.53;84.84;102528.97;6223089;28;20050;-81
2021/09/01 10:59:25;;;;;;;3.65;2.10;;;;;;;17.41;85.13;102527.84;6223171;28;20049;-81
2021/09/01 11:02:26;;;;;;;3.42;2.00;;;;;;;17.45;85.68;102524.09;6223462;28;20180;-82
2021/09/01 11:05:30;;;;;;;7.32;2.15;;;;;;;17.34;87.24;102521.13;6226278;28;20117;-82
2021/09/01 11:08:31;;;;;;;3.22;1.70;;;;;;;17.48;86.35;102524.75;6230185;28;20057;-80
2021/09/01 11:11:45;;;;;;;3.15;1.85;;;;;;;17.79;84.43;102522.28;6231841;28;20053;-80
2021/09/01 11:14:48;;;;;;;9.40;2.75;;;;;;;18.02;84.78;102521.00;6254703;22;20057;-83
2021/09/01 11:17:50;;;;;;;5.20;2.20;;;;;;;18.25;83.15;102525.84;6243872;28;20056;-80
2021/09/01 11:20:55;;;;;;;3.55;1.80;;;;;;;18.57;82.44;102523.13;6253861;28;20053;-80
2021/09/01 11:23:58;;;;;;;3.55;2.03;;;;;;;18.88;79.19;102516.88;6253581;28;20052;-80
2021/09/01 11:26:59;;;;;;;4.88;2.40;;;;;;;19.00;78.82;102517.00;6252750;28;20053;-81
2021/09/01 11:30:02;;;;;;;6.30;1.95;;;;;;;19.27;76.33;102521.59;6229042;28;20628;-80
2021/09/01 11:33:04;;;;;;;5.88;1.88;;;;;;;19.46;74.42;102513.31;6228276;28;20057;-80
2021/09/01 11:36:07;;;;;;;5.05;2.50;;;;;;;19.46;75.43;102514.16;6227222;28;20571;-81
2021/09/01 11:39:08;;;;;;;5.00;1.65;;;;;;;19.39;76.34;102509.28;6227982;28;20050;-80
2021/09/01 11:42:10;;;;;;;3.55;1.73;;;;;;;19.49;74.42;102499.78;6227909;28;20054;-80
2021/09/01 11:45:12;;;;;;;3.20;1.83;;;;;;;19.52;75.41;102499.56;6227663;28;20137;-80
2021/09/01 11:48:20;;;;;;;4.03;2.08;;;;;;;19.89;72.19;102502.59;6228692;28;20053;-82
2021/09/01 11:51:23;;;;;;;3.20;1.80;;;;;;;20.07;72.81;102497.88;6228721;28;20046;-82
2021/09/01 11:54:25;;;;;;;4.47;2.28;;;;;;;20.17;72.86;102497.19;6228135;28;20041;-83
2021/09/01 11:57:27;;;;;;;4.40;2.00;;;;;;;20.41;70.73;102505.38;6228410;28;20406;-83
2021/09/01 12:00:28;;;;;;;5.80;3.08;;;;;;;20.60;69.29;102494.31;6236893;28;20046;-82
2021/09/01 12:03:31;;;;;;;4.82;2.25;;;;;;;20.55;69.55;102501.81;6227856;28;20054;-82
2021/09/01 12:06:41;;;;;;;5.43;2.30;;;;;;;20.43;68.83;102507.94;6227863;28;20046;-83
2021/09/01 12:09:43;;;;;;;3.42;2.10;;;;;;;20.15;69.75;102501.75;6227563;28;20057;-82
2021/09/01 12:12:44;;;;;;;4.22;2.17;;;;;;;20.28;71.42;102499.13;6227970;28;20405;-83
2021/09/01 12:15:59;;;;;;;14.38;4.00;;;;;;;20.60;69.14;102505.00;6226687;28;20413;-83
2021/09/01 12:19:04;;;;;;;5.80;2.15;;;;;;;20.24;70.56;102487.78;6227547;28;20057;-81
2021/09/01 12:22:06;;;;;;;4.30;2.22;;;;;;;20.50;68.30;102488.75;6227574;28;20050;-82
2021/09/01 12:25:10;;;;;;;6.25;2.63;;;;;;;20.89;69.87;102489.69;6226905;28;20046;-82
2021/09/01 12:28:14;;;;;;;6.80;2.53;;;;;;;21.14;69.00;102487.97;6227891;28;20057;-81
2021/09/01 12:31:20;;;;;;;4.30;2.15;;;;;;;21.60;68.01;102482.88;6227112;28;20057;-81
2021/09/01 12:34:26;;;;;;;5.63;2.88;;;;;;;21.57;65.36;102487.59;6227055;28;20045;-81
2021/09/01 12:37:30;;;;;;;4.38;2.40;;;;;;;21.57;67.81;102474.22;6226711;28;20572;-82
2021/09/01 12:40:33;;;;;;;3.63;2.20;;;;;;;21.93;63.47;102479.53;6227861;28;20057;-82
2021/09/01 12:43:40;;;;;;;4.20;2.22;;;;;;;21.84;63.85;102480.22;6226616;28;20054;-81
2021/09/01 12:46:42;;;;;;;5.25;2.22;;;;;;;21.77;63.66;102471.81;6225849;28;20124;-83
2021/09/01 12:49:44;;;;;;;3.35;2.08;;;;;;;21.80;66.05;102476.06;6226126;28;20498;-83
2021/09/01 12:52:47;;;;;;;7.72;2.20;;;;;;;21.93;62.34;102468.84;6226758;28;20057;-83
2021/09/01 12:55:50;;;;;;;9.02;3.05;;;;;;;21.89;65.11;102475.41;6226493;28;20505;-82
2021/09/01 12:58:52;;;;;;;4.93;2.35;;;;;;;22.18;60.56;102465.22;6226684;28;20065;-82
2021/09/01 13:02:04;;;;;;;3.90;2.28;;;;;;;22.22;61.69;102457.81;6226246;28;20425;-82
2021/09/01 13:05:06;;;;;;;6.45;3.10;;;;;;;21.70;66.99;102465.19;6225911;28;20692;-81
2021/09/01 13:08:09;;;;;;;3.97;1.95;;;;;;;21.63;65.03;102466.63;6226137;28;20066;-80
2021/09/01 13:11:11;;;;;;;3.80;2.30;;;;;;;21.25;65.81;102472.84;6226226;28;20054;-83
2021/09/01 13:14:12;;;;;;;3.10;2.20;;;;;;;21.04;66.69;102471.72;6225548;28;20049;-80
2021/09/01 13:17:14;;;;;;;4.07;2.55;;;;;;;21.49;64.52;102456.91;6226047;28;20049;-76
2021/09/01 13:20:16;;;;;;;5.55;2.30;;;;;;;21.81;64.15;102459.06;6226368;28;20050;-79
2021/09/01 13:23:19;;;;;;;5.75;2.05;;;;;;;22.01;62.53;102461.09;6227249;28;20054;-81
2021/09/01 13:26:21;;;;;;;4.30;2.20;;;;;;;22.10;59.75;102459.56;6226933;28;20123;-81
2021/09/01 13:29:22;;;;;;;5.93;2.13;;;;;;;21.17;62.18;102456.50;6225283;28;20417;-81
2021/09/01 13:32:24;;;;;;;5.60;2.10;;;;;;;21.03;64.95;102457.50;6225153;28;20053;-80
2021/09/01 13:35:25;;;;;;;4.43;2.15;;;;;;;21.58;63.64;102446.50;6240290;28;20041;-78
2021/09/01 13:38:28;;;;;;;3.72;2.42;;;;;;;22.31;60.48;102440.22;6246005;28;20042;-80
2021/09/01 13:41:29;;;;;;;4.20;2.65;;;;;;;22.45;61.28;102434.66;6230126;28;20061;-81
2021/09/01 13:44:37;;;;;;;4.53;2.35;;;;;;;22.19;59.96;102439.31;6227378;28;20046;-81
2021/09/01 13:47:38;;;;;;;6.63;2.58;;;;;;;21.51;62.57;102436.25;6226919;28;20045;-83
2021/09/01 13:50:40;;;;;;;4.22;1.80;;;;;;;20.97;64.34;102441.88;6235298;28;20046;-83
2021/09/01 13:53:42;;;;;;;4.22;2.10;;;;;;;20.59;66.69;102441.00;6233614;28;20042;-81
2021/09/01 13:56:44;;;;;;;4.00;2.03;;;;;;;20.40;67.70;102438.72;6236754;28;20414;-81
2021/09/01 13:59:46;;;;;;;2.75;1.90;;;;;;;20.93;69.26;102444.84;6229820;28;20516;-82
2021/09/01 14:02:50;;;;;;;3.08;1.80;;;;;;;21.44;64.26;102431.47;6225913;28;20648;-81